sensor_id;sensor_type;location;lat;lon;timestamp;pressure;altitude;pressure_sealevel;temperature;humidity
706;BME280;21234;48.690;9.016;2023-06-10T00:00:03;95760.94;;;18.37;54.67
706;BME280;21234;48.690;9.016;2023-06-10T00:02:31;95756.69;;;18.31;54.76
706;BME280;21234;48.690;9.016;2023-06-10T00:04:58;95756.31;;;18.24;55.24
706;BME280;21234;48.690;9.016;2023-06-10T00:07:25;95748.34;;;18.22;55.62
706;BME280;21234;48.690;9.016;2023-06-10T00:09:53;95755.63;;;18.18;55.74
706;BME280;21234;48.690;9.016;2023-06-10T00:12:20;95760.78;;;18.20;55.97
706;BME280;21234;48.690;9.016;2023-06-10T00:14:47;95764.63;;;18.10;56.47
706;BME280;21234;48.690;9.016;2023-06-10T00:17:15;95769.09;;;18.06;56.67
706;BME280;21234;48.690;9.016;2023-06-10T00:19:42;95766.16;;;18.02;57.34
706;BME280;21234;48.690;9.016;2023-06-10T00:22:09;95764.84;;;18.00;57.54
706;BME280;21234;48.690;9.016;2023-06-10T00:24:35;95769.31;;;17.96;57.45
706;BME280;21234;48.690;9.016;2023-06-10T00:27:05;95768.00;;;17.93;57.42
706;BME280;21234;48.690;9.016;2023-06-10T00:29:32;95765.25;;;17.93;58.08
706;BME280;21234;48.690;9.016;2023-06-10T00:31:59;95757.00;;;17.93;57.91
706;BME280;21234;48.690;9.016;2023-06-10T00:34:25;95766.16;;;17.89;57.98
706;BME280;21234;48.690;9.016;2023-06-10T00:36:52;95757.75;;;17.85;58.61
706;BME280;21234;48.690;9.016;2023-06-10T00:39:19;95761.94;;;17.83;59.13
706;BME280;21234;48.690;9.016;2023-06-10T00:41:45;95759.41;;;17.72;60.25
706;BME280;21234;48.690;9.016;2023-06-10T00:44:13;95756.44;;;17.69;60.64
706;BME280;21234;48.690;9.016;2023-06-10T00:46:40;95760.31;;;17.68;60.13
706;BME280;21234;48.690;9.016;2023-06-10T00:49:08;95761.50;;;17.62;59.56
706;BME280;21234;48.690;9.016;2023-06-10T00:51:35;95762.56;;;17.66;59.71
706;BME280;21234;48.690;9.016;2023-06-10T00:54:02;95758.44;;;17.63;59.59
706;BME280;21234;48.690;9.016;2023-06-10T00:56:29;95761.00;;;17.60;59.76
706;BME280;21234;48.690;9.016;2023-06-10T00:58:56;95765.38;;;17.61;60.01
706;BME280;21234;48.690;9.016;2023-06-10T01:01:25;95760.94;;;17.65;59.81
706;BME280;21234;48.690;9.016;2023-06-10T01:03:52;95759.16;;;17.55;60.74
706;BME280;21234;48.690;9.016;2023-06-10T01:06:26;95759.28;;;17.50;60.84
706;BME280;21234;48.690;9.016;2023-06-10T01:09:02;95758.69;;;17.39;61.44
706;BME280;21234;48.690;9.016;2023-06-10T01:11:36;95756.84;;;17.35;62.17
706;BME280;21234;48.690;9.016;2023-06-10T01:14:04;95757.84;;;17.25;62.70
706;BME280;21234;48.690;9.016;2023-06-10T01:16:34;95755.94;;;17.12;63.39
706;BME280;21234;48.690;9.016;2023-06-10T01:19:02;95751.13;;;17.04;64.88
706;BME280;21234;48.690;9.016;2023-06-10T01:21:30;95753.16;;;16.98;64.43
706;BME280;21234;48.690;9.016;2023-06-10T01:23:57;95750.81;;;16.92;65.45
706;BME280;21234;48.690;9.016;2023-06-10T01:26:26;95753.84;;;16.90;65.57
706;BME280;21234;48.690;9.016;2023-06-10T01:28:58;95747.25;;;16.91;66.13
706;BME280;21234;48.690;9.016;2023-06-10T01:31:31;95738.50;;;16.75;67.07
706;BME280;21234;48.690;9.016;2023-06-10T01:34:03;95737.03;;;16.64;68.01
706;BME280;21234;48.690;9.016;2023-06-10T01:36:33;95751.28;;;16.66;67.88
706;BME280;21234;48.690;9.016;2023-06-10T01:39:02;95750.22;;;16.62;67.95
706;BME280;21234;48.690;9.016;2023-06-10T01:41:31;95752.84;;;16.54;68.36
706;BME280;21234;48.690;9.016;2023-06-10T01:43:58;95747.34;;;16.54;68.60
706;BME280;21234;48.690;9.016;2023-06-10T01:46:25;95751.06;;;16.44;68.84
706;BME280;21234;48.690;9.016;2023-06-10T01:48:52;95751.69;;;16.41;69.46
706;BME280;21234;48.690;9.016;2023-06-10T01:51:18;95758.44;;;16.30;69.77
706;BME280;21234;48.690;9.016;2023-06-10T01:53:47;95758.44;;;16.30;70.07
706;BME280;21234;48.690;9.016;2023-06-10T01:56:13;95758.22;;;16.26;70.50
706;BME280;21234;48.690;9.016;2023-06-10T01:58:43;95765.28;;;16.13;69.58
706;BME280;21234;48.690;9.016;2023-06-10T02:01:10;95766.84;;;16.01;69.91
706;BME280;21234;48.690;9.016;2023-06-10T02:03:37;95762.09;;;15.88;71.48
706;BME280;21234;48.690;9.016;2023-06-10T02:06:04;95769.81;;;15.86;70.86
706;BME280;21234;48.690;9.016;2023-06-10T02:08:30;95767.94;;;15.81;71.15
706;BME280;21234;48.690;9.016;2023-06-10T02:10:58;95765.50;;;15.79;71.55
706;BME280;21234;48.690;9.016;2023-06-10T02:13:25;95770.47;;;15.77;71.36
706;BME280;21234;48.690;9.016;2023-06-10T02:15:52;95771.63;;;15.71;72.30
706;BME280;21234;48.690;9.016;2023-06-10T02:18:19;95769.78;;;15.67;72.13
706;BME280;21234;48.690;9.016;2023-06-10T02:20:47;95780.50;;;15.63;73.13
706;BME280;21234;48.690;9.016;2023-06-10T02:23:14;95780.59;;;15.58;73.44
706;BME280;21234;48.690;9.016;2023-06-10T02:25:41;95772.16;;;15.50;73.75
706;BME280;21234;48.690;9.016;2023-06-10T02:28:09;95773.56;;;15.47;74.22
706;BME280;21234;48.690;9.016;2023-06-10T02:30:36;95778.00;;;15.43;74.26
706;BME280;21234;48.690;9.016;2023-06-10T02:33:04;95777.25;;;15.37;74.30
706;BME280;21234;48.690;9.016;2023-06-10T02:35:35;95776.25;;;15.28;73.96
706;BME280;21234;48.690;9.016;2023-06-10T02:38:02;95788.00;;;15.29;74.62
706;BME280;21234;48.690;9.016;2023-06-10T02:40:29;95795.06;;;15.35;75.06
706;BME280;21234;48.690;9.016;2023-06-10T02:42:56;95799.88;;;15.24;75.54
706;BME280;21234;48.690;9.016;2023-06-10T02:45:25;95788.84;;;15.29;75.06
706;BME280;21234;48.690;9.016;2023-06-10T02:47:51;95794.22;;;15.16;75.65
706;BME280;21234;48.690;9.016;2023-06-10T02:50:18;95797.19;;;15.19;75.80
706;BME280;21234;48.690;9.016;2023-06-10T02:52:45;95788.50;;;15.12;75.32
706;BME280;21234;48.690;9.016;2023-06-10T02:55:11;95787.91;;;15.15;75.64
706;BME280;21234;48.690;9.016;2023-06-10T02:57:38;95792.47;;;15.25;75.18
706;BME280;21234;48.690;9.016;2023-06-10T03:00:06;95798.53;;;15.22;75.42
706;BME280;21234;48.690;9.016;2023-06-10T03:02:37;95789.03;;;15.14;74.89
706;BME280;21234;48.690;9.016;2023-06-10T03:05:04;95793.97;;;15.12;75.94
706;BME280;21234;48.690;9.016;2023-06-10T03:07:35;95798.56;;;15.17;75.96
706;BME280;21234;48.690;9.016;2023-06-10T03:10:02;95800.03;;;15.09;76.67
706;BME280;21234;48.690;9.016;2023-06-10T03:12:29;95804.34;;;15.15;76.54
706;BME280;21234;48.690;9.016;2023-06-10T03:14:56;95798.16;;;15.04;77.03
706;BME280;21234;48.690;9.016;2023-06-10T03:17:22;95808.53;;;15.07;77.11
706;BME280;21234;48.690;9.016;2023-06-10T03:19:50;95810.50;;;15.02;76.85
706;BME280;21234;48.690;9.016;2023-06-10T03:22:17;95811.34;;;14.97;77.13
706;BME280;21234;48.690;9.016;2023-06-10T03:24:44;95807.47;;;15.03;77.11
706;BME280;21234;48.690;9.016;2023-06-10T03:27:12;95809.63;;;15.06;77.07
706;BME280;21234;48.690;9.016;2023-06-10T03:29:40;95811.53;;;15.06;77.17
706;BME280;21234;48.690;9.016;2023-06-10T03:32:07;95809.50;;;14.93;78.06
706;BME280;21234;48.690;9.016;2023-06-10T03:34:34;95810.47;;;14.78;78.64
706;BME280;21234;48.690;9.016;2023-06-10T03:37:02;95811.28;;;14.78;78.87
706;BME280;21234;48.690;9.016;2023-06-10T03:39:29;95820.78;;;14.86;78.61
706;BME280;21234;48.690;9.016;2023-06-10T03:41:56;95816.22;;;14.76;79.00
706;BME280;21234;48.690;9.016;2023-06-10T03:44:24;95821.44;;;14.73;79.06
706;BME280;21234;48.690;9.016;2023-06-10T03:46:51;95818.63;;;14.83;78.54
706;BME280;21234;48.690;9.016;2023-06-10T03:49:18;95826.06;;;14.77;79.02
706;BME280;21234;48.690;9.016;2023-06-10T03:51:45;95822.06;;;14.65;80.80
706;BME280;21234;48.690;9.016;2023-06-10T03:54:13;95823.41;;;14.67;80.68
706;BME280;21234;48.690;9.016;2023-06-10T03:56:40;95828.88;;;14.67;80.60
706;BME280;21234;48.690;9.016;2023-06-10T03:59:06;95830.53;;;14.63;81.72
706;BME280;21234;48.690;9.016;2023-06-10T04:01:33;95827.00;;;14.63;81.54
706;BME280;21234;48.690;9.016;2023-06-10T04:04:02;95829.69;;;14.68;80.78
706;BME280;21234;48.690;9.016;2023-06-10T04:06:29;95824.72;;;14.75;80.78
706;BME280;21234;48.690;9.016;2023-06-10T04:08:57;95825.78;;;14.79;80.64
706;BME280;21234;48.690;9.016;2023-06-10T04:11:25;95831.19;;;14.84;80.41
706;BME280;21234;48.690;9.016;2023-06-10T04:13:52;95828.13;;;14.91;79.99
706;BME280;21234;48.690;9.016;2023-06-10T04:16:18;95821.72;;;15.00;78.82
706;BME280;21234;48.690;9.016;2023-06-10T04:18:46;95828.22;;;15.09;79.50
706;BME280;21234;48.690;9.016;2023-06-10T04:21:13;95823.97;;;15.22;79.74
706;BME280;21234;48.690;9.016;2023-06-10T04:23:39;95835.19;;;15.26;79.77
706;BME280;21234;48.690;9.016;2023-06-10T04:26:07;95834.16;;;15.17;79.48
706;BME280;21234;48.690;9.016;2023-06-10T04:28:36;95834.22;;;15.11;79.16
706;BME280;21234;48.690;9.016;2023-06-10T04:31:02;95837.47;;;15.13;78.74
706;BME280;21234;48.690;9.016;2023-06-10T04:33:29;95845.88;;;15.22;80.34
706;BME280;21234;48.690;9.016;2023-06-10T04:35:56;95843.59;;;15.29;80.32
706;BME280;21234;48.690;9.016;2023-06-10T04:38:23;95830.91;;;15.38;80.18
706;BME280;21234;48.690;9.016;2023-06-10T04:40:49;95832.50;;;15.44;80.31
706;BME280;21234;48.690;9.016;2023-06-10T04:43:17;95836.53;;;15.52;80.44
706;BME280;21234;48.690;9.016;2023-06-10T04:45:45;95834.47;;;15.63;79.75
706;BME280;21234;48.690;9.016;2023-06-10T04:48:12;95841.59;;;15.64;77.51
706;BME280;21234;48.690;9.016;2023-06-10T04:50:39;95844.81;;;15.71;79.69
706;BME280;21234;48.690;9.016;2023-06-10T04:53:06;95846.31;;;15.82;81.17
706;BME280;21234;48.690;9.016;2023-06-10T04:55:32;95855.66;;;15.81;80.40
706;BME280;21234;48.690;9.016;2023-06-10T04:57:59;95840.19;;;15.90;85.90
706;BME280;21234;48.690;9.016;2023-06-10T05:00:26;95841.88;;;15.86;79.99
706;BME280;21234;48.690;9.016;2023-06-10T05:02:54;95840.03;;;16.00;85.46
706;BME280;21234;48.690;9.016;2023-06-10T05:05:21;95850.00;;;16.15;86.43
706;BME280;21234;48.690;9.016;2023-06-10T05:07:48;95852.44;;;16.17;87.15
706;BME280;21234;48.690;9.016;2023-06-10T05:10:15;95847.19;;;16.20;85.59
706;BME280;21234;48.690;9.016;2023-06-10T05:12:42;95851.47;;;16.26;84.84
706;BME280;21234;48.690;9.016;2023-06-10T05:15:09;95855.25;;;16.30;84.74
706;BME280;21234;48.690;9.016;2023-06-10T05:17:36;95848.22;;;16.43;82.02
706;BME280;21234;48.690;9.016;2023-06-10T05:20:05;95854.66;;;16.52;79.52
706;BME280;21234;48.690;9.016;2023-06-10T05:22:33;95856.81;;;16.74;79.65
706;BME280;21234;48.690;9.016;2023-06-10T05:25:00;95848.75;;;16.96;77.97
706;BME280;21234;48.690;9.016;2023-06-10T05:27:28;95860.59;;;17.24;76.19
706;BME280;21234;48.690;9.016;2023-06-10T05:29:54;95861.06;;;17.45;75.79
706;BME280;21234;48.690;9.016;2023-06-10T05:32:22;95862.91;;;17.63;73.29
706;BME280;21234;48.690;9.016;2023-06-10T05:34:49;95857.34;;;17.82;71.38
706;BME280;21234;48.690;9.016;2023-06-10T05:37:17;95856.41;;;18.00;69.79
706;BME280;21234;48.690;9.016;2023-06-10T05:39:43;95861.78;;;18.19;69.14
706;BME280;21234;48.690;9.016;2023-06-10T05:42:10;95856.53;;;18.45;68.78
706;BME280;21234;48.690;9.016;2023-06-10T05:44:37;95861.16;;;18.58;68.54
706;BME280;21234;48.690;9.016;2023-06-10T05:47:04;95864.59;;;18.77;67.49
706;BME280;21234;48.690;9.016;2023-06-10T05:49:31;95860.72;;;19.01;66.89
706;BME280;21234;48.690;9.016;2023-06-10T05:51:58;95865.03;;;19.16;66.36
706;BME280;21234;48.690;9.016;2023-06-10T05:54:26;95862.00;;;19.26;64.93
706;BME280;21234;48.690;9.016;2023-06-10T05:56:53;95856.75;;;19.38;65.38
706;BME280;21234;48.690;9.016;2023-06-10T05:59:20;95853.53;;;19.44;64.02
706;BME280;21234;48.690;9.016;2023-06-10T06:01:48;95862.28;;;19.69;63.15
706;BME280;21234;48.690;9.016;2023-06-10T06:04:15;95859.81;;;19.67;63.26
706;BME280;21234;48.690;9.016;2023-06-10T06:06:41;95868.19;;;19.93;62.67
706;BME280;21234;48.690;9.016;2023-06-10T06:09:08;95863.38;;;20.07;61.41
706;BME280;21234;48.690;9.016;2023-06-10T06:11:36;95864.69;;;20.19;62.06
706;BME280;21234;48.690;9.016;2023-06-10T06:14:03;95865.50;;;20.19;61.06
706;BME280;21234;48.690;9.016;2023-06-10T06:16:30;95867.63;;;20.22;61.97
706;BME280;21234;48.690;9.016;2023-06-10T06:18:56;95870.91;;;20.33;61.04
706;BME280;21234;48.690;9.016;2023-06-10T06:21:23;95863.66;;;20.54;61.91
706;BME280;21234;48.690;9.016;2023-06-10T06:23:50;95868.84;;;20.56;60.59
706;BME280;21234;48.690;9.016;2023-06-10T06:26:16;95873.75;;;20.76;61.55
706;BME280;21234;48.690;9.016;2023-06-10T06:28:45;95859.28;;;21.05;60.99
706;BME280;21234;48.690;9.016;2023-06-10T06:31:12;95870.31;;;21.22;59.95
706;BME280;21234;48.690;9.016;2023-06-10T06:33:38;95870.81;;;21.33;58.76
706;BME280;21234;48.690;9.016;2023-06-10T06:36:05;95869.84;;;21.29;58.43
706;BME280;21234;48.690;9.016;2023-06-10T06:38:32;95881.22;;;21.36;57.88
706;BME280;21234;48.690;9.016;2023-06-10T06:40:59;95874.97;;;21.56;57.41
706;BME280;21234;48.690;9.016;2023-06-10T06:43:28;95880.78;;;21.72;55.59
706;BME280;21234;48.690;9.016;2023-06-10T06:45:57;95876.34;;;21.79;56.26
706;BME280;21234;48.690;9.016;2023-06-10T06:48:24;95889.03;;;21.80;54.64
706;BME280;21234;48.690;9.016;2023-06-10T06:50:50;95888.13;;;21.68;54.66
706;BME280;21234;48.690;9.016;2023-06-10T06:53:17;95889.47;;;22.00;55.36
706;BME280;21234;48.690;9.016;2023-06-10T06:55:44;95883.38;;;22.15;54.66
706;BME280;21234;48.690;9.016;2023-06-10T06:58:11;95887.63;;;22.12;53.41
706;BME280;21234;48.690;9.016;2023-06-10T07:00:37;95887.22;;;22.02;54.20
706;BME280;21234;48.690;9.016;2023-06-10T07:03:05;95897.16;;;21.86;54.60
706;BME280;21234;48.690;9.016;2023-06-10T07:05:32;95895.38;;;21.81;53.65
706;BME280;21234;48.690;9.016;2023-06-10T07:07:59;95889.31;;;22.05;54.64
706;BME280;21234;48.690;9.016;2023-06-10T07:10:26;95891.31;;;22.25;54.71
706;BME280;21234;48.690;9.016;2023-06-10T07:12:53;95897.97;;;22.33;53.18
706;BME280;21234;48.690;9.016;2023-06-10T07:15:20;95891.69;;;22.44;53.05
706;BME280;21234;48.690;9.016;2023-06-10T07:17:47;95896.41;;;22.73;53.00
706;BME280;21234;48.690;9.016;2023-06-10T07:20:15;95887.81;;;23.08;52.81
706;BME280;21234;48.690;9.016;2023-06-10T07:22:43;95891.31;;;23.38;52.26
706;BME280;21234;48.690;9.016;2023-06-10T07:25:10;95892.94;;;23.06;51.32
706;BME280;21234;48.690;9.016;2023-06-10T07:27:37;95889.81;;;22.87;51.16
706;BME280;21234;48.690;9.016;2023-06-10T07:30:08;95895.59;;;23.15;50.73
706;BME280;21234;48.690;9.016;2023-06-10T07:32:36;95893.50;;;23.32;52.09
706;BME280;21234;48.690;9.016;2023-06-10T07:35:03;95880.25;;;23.50;50.18
706;BME280;21234;48.690;9.016;2023-06-10T07:37:31;95881.88;;;23.51;49.10
706;BME280;21234;48.690;9.016;2023-06-10T07:39:58;95880.47;;;23.66;49.70
706;BME280;21234;48.690;9.016;2023-06-10T07:42:25;95879.53;;;23.74;49.63
706;BME280;21234;48.690;9.016;2023-06-10T07:44:52;95877.38;;;23.92;51.77
706;BME280;21234;48.690;9.016;2023-06-10T07:47:18;95880.97;;;23.92;48.95
706;BME280;21234;48.690;9.016;2023-06-10T07:49:45;95884.91;;;23.91;48.42
706;BME280;21234;48.690;9.016;2023-06-10T07:52:12;95873.81;;;24.03;47.82
706;BME280;21234;48.690;9.016;2023-06-10T07:54:41;95875.47;;;24.29;47.98
706;BME280;21234;48.690;9.016;2023-06-10T07:57:08;95877.63;;;24.11;48.17
706;BME280;21234;48.690;9.016;2023-06-10T07:59:35;95872.19;;;24.15;48.16
706;BME280;21234;48.690;9.016;2023-06-10T08:02:02;95885.25;;;24.14;47.06
706;BME280;21234;48.690;9.016;2023-06-10T08:04:28;95892.22;;;24.20;46.73
706;BME280;21234;48.690;9.016;2023-06-10T08:06:56;95887.09;;;23.98;46.30
706;BME280;21234;48.690;9.016;2023-06-10T08:09:23;95880.00;;;23.76;46.94
706;BME280;21234;48.690;9.016;2023-06-10T08:11:51;95880.28;;;24.20;49.62
706;BME280;21234;48.690;9.016;2023-06-10T08:14:18;95879.63;;;24.35;46.83
706;BME280;21234;48.690;9.016;2023-06-10T08:16:44;95878.56;;;24.52;47.57
706;BME280;21234;48.690;9.016;2023-06-10T08:19:11;95885.50;;;24.45;46.16
706;BME280;21234;48.690;9.016;2023-06-10T08:21:38;95877.84;;;24.18;47.93
706;BME280;21234;48.690;9.016;2023-06-10T08:24:05;95888.16;;;24.18;46.19
706;BME280;21234;48.690;9.016;2023-06-10T08:26:32;95886.44;;;24.37;46.17
706;BME280;21234;48.690;9.016;2023-06-10T08:29:00;95881.56;;;24.22;46.96
706;BME280;21234;48.690;9.016;2023-06-10T08:31:27;95885.25;;;24.02;46.69
706;BME280;21234;48.690;9.016;2023-06-10T08:33:54;95881.13;;;24.32;47.88
706;BME280;21234;48.690;9.016;2023-06-10T08:36:21;95884.00;;;24.24;46.86
706;BME280;21234;48.690;9.016;2023-06-10T08:38:47;95879.81;;;24.18;46.48
706;BME280;21234;48.690;9.016;2023-06-10T08:41:17;95884.22;;;24.19;46.73
706;BME280;21234;48.690;9.016;2023-06-10T08:43:50;95888.97;;;24.42;47.35
706;BME280;21234;48.690;9.016;2023-06-10T08:46:20;95884.44;;;24.74;47.26
706;BME280;21234;48.690;9.016;2023-06-10T08:48:48;95879.56;;;24.71;46.49
706;BME280;21234;48.690;9.016;2023-06-10T08:51:20;95877.53;;;24.56;44.99
706;BME280;21234;48.690;9.016;2023-06-10T08:53:53;95882.66;;;24.94;46.39
706;BME280;21234;48.690;9.016;2023-06-10T08:56:24;95888.66;;;25.36;45.92
706;BME280;21234;48.690;9.016;2023-06-10T08:58:52;95879.09;;;25.34;45.03
706;BME280;21234;48.690;9.016;2023-06-10T09:01:21;95885.34;;;24.78;43.62
706;BME280;21234;48.690;9.016;2023-06-10T09:03:47;95882.34;;;24.96;43.74
706;BME280;21234;48.690;9.016;2023-06-10T09:06:14;95881.19;;;24.85;43.89
706;BME280;21234;48.690;9.016;2023-06-10T09:08:42;95883.06;;;24.68;44.42
706;BME280;21234;48.690;9.016;2023-06-10T09:11:09;95880.91;;;25.02;45.92
706;BME280;21234;48.690;9.016;2023-06-10T09:13:36;95873.03;;;25.04;44.12
706;BME280;21234;48.690;9.016;2023-06-10T09:16:03;95877.25;;;24.98;44.13
706;BME280;21234;48.690;9.016;2023-06-10T09:18:31;95876.38;;;25.37;46.10
706;BME280;21234;48.690;9.016;2023-06-10T09:20:59;95877.00;;;25.31;45.43
706;BME280;21234;48.690;9.016;2023-06-10T09:23:26;95879.56;;;25.52;43.15
706;BME280;21234;48.690;9.016;2023-06-10T09:25:57;95883.72;;;25.58;43.42
706;BME280;21234;48.690;9.016;2023-06-10T09:28:24;95880.97;;;25.73;43.40
706;BME280;21234;48.690;9.016;2023-06-10T09:31:02;95880.91;;;25.02;43.70
706;BME280;21234;48.690;9.016;2023-06-10T09:33:28;95868.19;;;24.89;44.56
706;BME280;21234;48.690;9.016;2023-06-10T09:35:57;95864.56;;;25.13;44.46
706;BME280;21234;48.690;9.016;2023-06-10T09:38:30;95874.69;;;25.33;43.29
706;BME280;21234;48.690;9.016;2023-06-10T09:40:57;95878.00;;;25.38;43.83
706;BME280;21234;48.690;9.016;2023-06-10T09:43:39;95871.31;;;25.83;44.06
706;BME280;21234;48.690;9.016;2023-06-10T09:46:14;95879.63;;;25.39;43.30
706;BME280;21234;48.690;9.016;2023-06-10T09:48:42;95875.66;;;25.40;43.04
706;BME280;21234;48.690;9.016;2023-06-10T09:51:11;95871.88;;;25.61;43.69
706;BME280;21234;48.690;9.016;2023-06-10T09:53:39;95861.94;;;25.75;43.09
706;BME280;21234;48.690;9.016;2023-06-10T09:56:06;95871.75;;;25.85;43.48
706;BME280;21234;48.690;9.016;2023-06-10T09:58:34;95868.81;;;26.41;43.80
706;BME280;21234;48.690;9.016;2023-06-10T10:01:04;95865.22;;;26.75;41.91
706;BME280;21234;48.690;9.016;2023-06-10T10:03:31;95864.94;;;26.96;42.62
706;BME280;21234;48.690;9.016;2023-06-10T10:05:59;95873.06;;;27.05;42.01
706;BME280;21234;48.690;9.016;2023-06-10T10:08:27;95866.19;;;27.18;42.32
706;BME280;21234;48.690;9.016;2023-06-10T10:10:56;95860.84;;;27.29;41.86
706;BME280;21234;48.690;9.016;2023-06-10T10:13:24;95859.81;;;27.18;41.54
706;BME280;21234;48.690;9.016;2023-06-10T10:15:52;95854.56;;;27.35;43.69
706;BME280;21234;48.690;9.016;2023-06-10T10:18:20;95854.66;;;27.00;41.21
706;BME280;21234;48.690;9.016;2023-06-10T10:20:54;95855.31;;;26.59;41.90
706;BME280;21234;48.690;9.016;2023-06-10T10:23:25;95854.22;;;26.00;42.86
706;BME280;21234;48.690;9.016;2023-06-10T10:25:57;95848.50;;;25.50;44.70
706;BME280;21234;48.690;9.016;2023-06-10T10:28:34;95854.47;;;25.36;44.73
706;BME280;21234;48.690;9.016;2023-06-10T10:31:08;95853.13;;;24.90;45.82
706;BME280;21234;48.690;9.016;2023-06-10T10:33:40;95850.59;;;24.85;45.90
706;BME280;21234;48.690;9.016;2023-06-10T10:36:09;95843.00;;;25.37;45.52
706;BME280;21234;48.690;9.016;2023-06-10T10:38:36;95858.94;;;25.25;44.22
706;BME280;21234;48.690;9.016;2023-06-10T10:41:04;95857.13;;;24.64;42.66
706;BME280;21234;48.690;9.016;2023-06-10T10:43:32;95859.50;;;24.26;42.92
706;BME280;21234;48.690;9.016;2023-06-10T10:46:00;95860.50;;;24.58;43.83
706;BME280;21234;48.690;9.016;2023-06-10T10:48:27;95856.47;;;24.43;44.53
706;BME280;21234;48.690;9.016;2023-06-10T10:51:01;95849.66;;;24.28;45.73
706;BME280;21234;48.690;9.016;2023-06-10T10:53:28;95847.91;;;24.36;47.19
706;BME280;21234;48.690;9.016;2023-06-10T10:56:06;95839.75;;;25.35;46.10
706;BME280;21234;48.690;9.016;2023-06-10T10:58:33;95845.47;;;25.98;42.21
706;BME280;21234;48.690;9.016;2023-06-10T11:01:10;95844.91;;;25.93;42.27
706;BME280;21234;48.690;9.016;2023-06-10T11:03:42;95842.94;;;26.25;40.17
706;BME280;21234;48.690;9.016;2023-06-10T11:06:12;95837.03;;;26.61;41.92
706;BME280;21234;48.690;9.016;2023-06-10T11:08:47;95843.72;;;26.76;40.31
706;BME280;21234;48.690;9.016;2023-06-10T11:11:20;95842.38;;;26.35;41.32
706;BME280;21234;48.690;9.016;2023-06-10T11:14:06;95838.44;;;26.20;42.27
706;BME280;21234;48.690;9.016;2023-06-10T11:16:39;95823.06;;;26.10;42.56
706;BME280;21234;48.690;9.016;2023-06-10T11:19:07;95841.44;;;26.62;38.15
706;BME280;21234;48.690;9.016;2023-06-10T11:21:45;95839.50;;;26.82;39.65
706;BME280;21234;48.690;9.016;2023-06-10T11:24:24;95834.09;;;27.08;39.91
706;BME280;21234;48.690;9.016;2023-06-10T11:26:52;95842.09;;;26.56;41.54
706;BME280;21234;48.690;9.016;2023-06-10T11:29:19;95834.09;;;26.38;41.10
706;BME280;21234;48.690;9.016;2023-06-10T11:31:49;95839.25;;;25.89;41.31
706;BME280;21234;48.690;9.016;2023-06-10T11:34:22;95832.16;;;25.48;42.16
706;BME280;21234;48.690;9.016;2023-06-10T11:36:51;95838.66;;;25.24;43.76
706;BME280;21234;48.690;9.016;2023-06-10T11:39:19;95838.31;;;25.26;43.52
706;BME280;21234;48.690;9.016;2023-06-10T11:41:46;95834.31;;;25.11;43.12
706;BME280;21234;48.690;9.016;2023-06-10T11:44:15;95836.06;;;25.03;43.89
706;BME280;21234;48.690;9.016;2023-06-10T11:46:42;95836.38;;;25.14;43.94
706;BME280;21234;48.690;9.016;2023-06-10T11:49:09;95832.47;;;25.03;43.50
706;BME280;21234;48.690;9.016;2023-06-10T11:51:36;95829.97;;;24.86;44.08
706;BME280;21234;48.690;9.016;2023-06-10T11:54:04;95824.59;;;24.65;44.01
706;BME280;21234;48.690;9.016;2023-06-10T11:56:31;95818.94;;;24.61;45.03
706;BME280;21234;48.690;9.016;2023-06-10T11:59:00;95830.34;;;24.72;45.58
706;BME280;21234;48.690;9.016;2023-06-10T12:01:32;95822.41;;;25.54;44.19
706;BME280;21234;48.690;9.016;2023-06-10T12:04:01;95820.75;;;25.97;39.64
706;BME280;21234;48.690;9.016;2023-06-10T12:06:38;95809.00;;;26.54;39.78
706;BME280;21234;48.690;9.016;2023-06-10T12:09:05;95817.81;;;26.56;38.84
706;BME280;21234;48.690;9.016;2023-06-10T12:11:32;95812.63;;;26.23;40.59
706;BME280;21234;48.690;9.016;2023-06-10T12:13:59;95809.53;;;25.93;41.25
706;BME280;21234;48.690;9.016;2023-06-10T12:16:25;95820.00;;;25.68;42.19
706;BME280;21234;48.690;9.016;2023-06-10T12:19:01;95814.06;;;25.70;42.75
706;BME280;21234;48.690;9.016;2023-06-10T12:21:28;95818.22;;;25.92;41.05
706;BME280;21234;48.690;9.016;2023-06-10T12:24:02;95817.88;;;25.77;41.12
706;BME280;21234;48.690;9.016;2023-06-10T12:26:40;95813.50;;;25.49;41.98
706;BME280;21234;48.690;9.016;2023-06-10T12:29:21;95812.72;;;26.11;42.90
706;BME280;21234;48.690;9.016;2023-06-10T12:31:57;95814.78;;;26.30;41.61
706;BME280;21234;48.690;9.016;2023-06-10T12:34:36;95808.97;;;26.03;41.23
706;BME280;21234;48.690;9.016;2023-06-10T12:37:04;95812.19;;;26.37;41.18
706;BME280;21234;48.690;9.016;2023-06-10T12:39:32;95815.94;;;26.44;41.25
706;BME280;21234;48.690;9.016;2023-06-10T12:41:59;95810.22;;;26.06;40.02
706;BME280;21234;48.690;9.016;2023-06-10T12:44:31;95812.66;;;25.76;38.80
706;BME280;21234;48.690;9.016;2023-06-10T12:46:57;95817.16;;;25.37;40.09
706;BME280;21234;48.690;9.016;2023-06-10T12:49:24;95804.19;;;25.13;41.04
706;BME280;21234;48.690;9.016;2023-06-10T12:51:53;95813.69;;;25.12;41.61
706;BME280;21234;48.690;9.016;2023-06-10T12:54:20;95807.22;;;25.52;41.59
706;BME280;21234;48.690;9.016;2023-06-10T12:56:47;95813.47;;;25.92;40.38
706;BME280;21234;48.690;9.016;2023-06-10T12:59:14;95805.78;;;26.36;40.40
706;BME280;21234;48.690;9.016;2023-06-10T13:01:40;95794.72;;;26.56;38.25
706;BME280;21234;48.690;9.016;2023-06-10T13:04:07;95796.38;;;26.95;38.40
706;BME280;21234;48.690;9.016;2023-06-10T13:06:35;95798.56;;;27.25;38.67
706;BME280;21234;48.690;9.016;2023-06-10T13:09:06;95790.56;;;27.65;38.53
706;BME280;21234;48.690;9.016;2023-06-10T13:11:33;95799.81;;;27.27;38.35
706;BME280;21234;48.690;9.016;2023-06-10T13:14:00;95796.19;;;26.88;38.83
706;BME280;21234;48.690;9.016;2023-06-10T13:16:27;95795.81;;;26.35;38.96
706;BME280;21234;48.690;9.016;2023-06-10T13:18:55;95797.38;;;26.01;41.46
706;BME280;21234;48.690;9.016;2023-06-10T13:21:21;95797.31;;;25.82;40.97
706;BME280;21234;48.690;9.016;2023-06-10T13:23:48;95785.31;;;25.50;41.05
706;BME280;21234;48.690;9.016;2023-06-10T13:26:16;95792.03;;;25.33;40.95